createdAt,value
2018-02-22T00:00:35.336Z,-0.70
2018-02-22T00:03:03.606Z,-0.70
2018-02-22T00:05:32.179Z,-0.70
2018-02-22T00:08:00.463Z,-0.80
2018-02-22T00:10:28.783Z,-0.70
2018-02-22T00:12:56.612Z,-0.80
2018-02-22T00:15:24.110Z,-0.70
2018-02-22T00:17:52.377Z,-0.80
2018-02-22T00:20:20.199Z,-0.80
2018-02-22T00:22:47.720Z,-0.80
2018-02-22T00:25:15.234Z,-0.80
2018-02-22T00:27:43.096Z,-0.80
2018-02-22T00:30:10.608Z,-0.90
2018-02-22T00:32:38.117Z,-0.90
2018-02-22T00:35:06.082Z,-0.80
2018-02-22T00:37:33.596Z,-0.90
2018-02-22T00:40:01.096Z,-0.90
2018-02-22T00:42:28.963Z,-0.90
2018-02-22T00:44:56.476Z,-0.90
2018-02-22T00:47:23.984Z,-0.90
2018-02-22T00:49:51.768Z,-0.90
2018-02-22T00:52:19.286Z,-1.00
2018-02-22T00:54:47.560Z,-1.00
2018-02-22T00:57:16.178Z,-1.00
2018-02-22T00:59:43.671Z,-1.00
2018-02-22T01:02:11.183Z,-1.10
2018-02-22T01:04:39.127Z,-1.10
2018-02-22T01:07:07.400Z,-1.20
2018-02-22T01:09:34.906Z,-1.20
2018-02-22T01:12:02.713Z,-1.20
2018-02-22T01:14:30.212Z,-1.20
2018-02-22T01:16:57.748Z,-1.30
2018-02-22T01:19:26.346Z,-1.30
2018-02-22T01:21:53.895Z,-1.30
2018-02-22T01:24:21.428Z,-1.30
2018-02-22T01:26:49.318Z,-1.30
2018-02-22T01:29:16.823Z,-1.30
2018-02-22T01:31:44.432Z,-1.30
2018-02-22T01:34:13.130Z,-1.40
2018-02-22T01:36:40.643Z,-1.40
2018-02-22T01:39:08.144Z,-1.40
2018-02-22T01:41:35.968Z,-1.40
2018-02-22T01:44:03.490Z,-1.40
2018-02-22T01:46:31.007Z,-1.50
2018-02-22T01:48:58.884Z,-1.50
2018-02-22T01:51:26.402Z,-1.50
2018-02-22T01:53:53.919Z,-1.50
2018-02-22T01:56:21.776Z,-1.60
2018-02-22T01:58:49.312Z,-1.60
2018-02-22T02:01:17.588Z,-1.70
2018-02-22T02:03:46.210Z,-1.80
2018-02-22T02:06:13.710Z,-1.80
2018-02-22T02:08:41.207Z,-1.80
2018-02-22T02:11:09.179Z,-1.80
2018-02-22T02:13:36.680Z,-1.80
2018-02-22T02:16:04.190Z,-1.90
2018-02-22T02:18:31.997Z,-1.90
2018-02-22T02:20:59.498Z,-1.90
2018-02-22T02:23:27.020Z,-1.90
2018-02-22T02:25:54.856Z,-1.90
2018-02-22T02:28:22.376Z,-2.00
2018-02-22T02:30:50.652Z,-2.00
2018-02-22T02:33:19.263Z,-2.00
2018-02-22T02:35:46.763Z,-2.00
2018-02-22T02:38:14.274Z,-2.00
2018-02-22T02:40:42.257Z,-2.00
2018-02-22T02:43:09.742Z,-2.00
2018-02-22T02:45:37.243Z,-2.00
2018-02-22T02:48:05.842Z,-2.00
2018-02-22T02:50:33.346Z,-2.00
2018-02-22T02:53:00.867Z,-2.00
2018-02-22T02:55:28.390Z,-2.10
2018-02-22T02:57:56.664Z,-2.10
2018-02-22T03:00:24.172Z,-2.20
2018-02-22T03:02:51.991Z,-2.20
2018-02-22T03:05:20.259Z,-2.10
2018-02-22T03:07:47.767Z,-2.20
2018-02-22T03:10:15.706Z,-2.10
2018-02-22T03:12:43.230Z,-2.10
2018-02-22T03:15:10.742Z,-2.10
2018-02-22T03:17:38.564Z,-2.10
2018-02-22T03:20:06.066Z,-2.20
2018-02-22T03:22:33.668Z,-2.20
2018-02-22T03:25:01.467Z,-2.20
2018-02-22T03:27:28.994Z,-2.20
2018-02-22T03:29:56.520Z,-2.30
2018-02-22T03:32:24.307Z,-2.30
2018-02-22T03:34:51.799Z,-2.20
2018-02-22T03:37:19.306Z,-2.30
2018-02-22T03:39:47.154Z,-2.30
2018-02-22T03:42:14.671Z,-2.30
2018-02-22T03:44:42.945Z,-2.30
2018-02-22T03:47:11.554Z,-2.30
2018-02-22T03:49:39.083Z,-2.40
2018-02-22T03:52:06.592Z,-2.40
2018-02-22T03:54:34.440Z,-2.30
2018-02-22T03:57:01.953Z,-2.40
2018-02-22T03:59:29.468Z,-2.40
2018-02-22T04:01:57.249Z,-2.40
2018-02-22T04:04:24.769Z,-2.40
2018-02-22T04:06:52.284Z,-2.40
2018-02-22T04:09:20.092Z,-2.40
2018-02-22T04:11:47.591Z,-2.40
2018-02-22T04:14:15.099Z,-2.40
2018-02-22T04:16:42.911Z,-2.50
2018-02-22T04:19:10.428Z,-2.50
2018-02-22T04:21:37.952Z,-2.50
2018-02-22T04:24:05.744Z,-2.50
2018-02-22T04:26:33.254Z,-2.50
2018-02-22T04:29:00.772Z,-2.50
2018-02-22T04:31:28.633Z,-2.50
2018-02-22T04:33:56.381Z,-2.50
2018-02-22T04:36:24.660Z,-2.40
2018-02-22T04:38:52.521Z,-2.50
2018-02-22T04:41:20.831Z,-2.50
2018-02-22T04:43:48.475Z,-2.50
2018-02-22T04:46:16.351Z,-2.50
2018-02-22T04:48:43.862Z,-2.50
2018-02-22T04:51:11.366Z,-2.50
2018-02-22T04:53:39.348Z,-2.50
2018-02-22T04:56:06.869Z,-2.60
2018-02-22T04:58:35.144Z,-2.50
2018-02-22T05:01:03.736Z,-2.50
2018-02-22T05:03:32.016Z,-2.50
2018-02-22T05:06:00.288Z,-2.40
2018-02-22T05:08:28.832Z,-2.40
2018-02-22T05:10:56.357Z,-2.40
2018-02-22T05:13:23.857Z,-2.40
2018-02-22T05:15:51.858Z,-2.40
2018-02-22T05:18:19.375Z,-2.40
2018-02-22T05:20:46.898Z,-2.30
2018-02-22T05:23:14.703Z,-2.30
2018-02-22T05:25:42.980Z,-2.30
2018-02-22T05:28:12.012Z,-2.30
2018-02-22T05:30:39.897Z,-2.30
2018-02-22T05:33:07.396Z,-2.20
2018-02-22T05:35:34.918Z,-2.20
2018-02-22T05:38:02.859Z,-2.20
2018-02-22T05:40:30.360Z,-2.20
2018-02-22T05:42:57.870Z,-2.20
2018-02-22T05:45:26.460Z,-2.10
2018-02-22T05:47:53.991Z,-2.10
2018-02-22T05:50:21.497Z,-2.00
2018-02-22T05:52:49.465Z,-2.00
2018-02-22T05:55:16.963Z,-2.00
2018-02-22T05:57:44.481Z,-2.00
2018-02-22T06:00:12.406Z,-2.00
2018-02-22T06:02:40.720Z,-1.90
2018-02-22T06:05:08.239Z,-1.90
2018-02-22T06:07:36.841Z,-1.90
2018-02-22T06:10:04.373Z,-1.90
2018-02-22T06:12:31.879Z,-1.80
2018-02-22T06:14:59.769Z,-1.80
2018-02-22T06:17:27.273Z,-1.80
2018-02-22T06:19:55.554Z,-1.80
2018-02-22T06:22:23.530Z,-1.80
2018-02-22T06:24:51.043Z,-1.80
2018-02-22T06:27:18.548Z,-1.80
2018-02-22T06:29:46.524Z,-1.80
2018-02-22T06:32:14.040Z,-1.70
2018-02-22T06:34:41.569Z,-1.70
2018-02-22T06:37:09.503Z,-1.70
2018-02-22T06:39:37.012Z,-1.60
2018-02-22T06:42:04.551Z,-1.60
2018-02-22T06:44:32.486Z,-1.60
2018-02-22T06:46:59.995Z,-1.50
2018-02-22T06:49:27.524Z,-1.50
2018-02-22T06:51:55.361Z,-1.50
2018-02-22T06:54:23.648Z,-1.40
2018-02-22T06:56:51.156Z,-1.50
2018-02-22T06:59:19.087Z,-1.40
2018-02-22T07:01:46.604Z,-1.40
2018-02-22T07:04:14.114Z,-1.40
2018-02-22T07:06:42.051Z,-1.40
2018-02-22T07:09:10.318Z,-1.30
2018-02-22T07:11:38.604Z,-1.30
2018-02-22T07:14:06.622Z,-1.30
2018-02-22T07:16:34.119Z,-1.20
2018-02-22T07:19:02.393Z,-1.20
2018-02-22T07:21:30.983Z,-1.10
2018-02-22T07:23:58.496Z,-1.20
2018-02-22T07:26:26.030Z,-1.10
2018-02-22T07:28:53.988Z,-1.10
2018-02-22T07:31:21.503Z,-1.00
2018-02-22T07:33:49.072Z,-1.00
2018-02-22T07:36:17.878Z,-0.90
2018-02-22T07:38:45.410Z,-0.90
2018-02-22T07:41:12.933Z,-0.90
2018-02-22T07:43:40.798Z,-0.80
2018-02-22T07:46:08.335Z,-0.70
2018-02-22T07:48:35.844Z,-0.70
2018-02-22T07:51:03.748Z,-0.70
2018-02-22T07:53:31.275Z,-0.60
2018-02-22T07:55:58.788Z,-0.60
2018-02-22T07:58:26.615Z,-0.60
2018-02-22T08:00:54.893Z,-0.50
2018-02-22T08:03:23.196Z,-0.50
2018-02-22T08:05:51.152Z,-0.50
2018-02-22T08:08:18.662Z,-0.40
2018-02-22T08:10:46.188Z,-0.40
2018-02-22T08:13:14.036Z,-0.40
2018-02-22T08:15:41.552Z,-0.30
2018-02-22T08:18:09.064Z,-0.30
2018-02-22T08:20:36.999Z,-0.20
2018-02-22T08:23:04.523Z,-0.20
2018-02-22T08:25:32.020Z,-0.20
2018-02-22T08:28:00.644Z,-0.10
2018-02-22T08:30:28.150Z,-0.10
2018-02-22T08:32:56.415Z,0.00
2018-02-22T08:35:24.252Z,-0.10
2018-02-22T08:37:51.760Z,0.00
2018-02-22T08:40:20.041Z,0.10
2018-02-22T08:42:47.869Z,0.10
2018-02-22T08:45:15.385Z,0.10
2018-02-22T08:47:42.914Z,0.10
2018-02-22T08:50:11.629Z,0.10
2018-02-22T08:52:39.142Z,0.10
2018-02-22T08:55:06.649Z,0.10
2018-02-22T08:57:34.458Z,0.20
2018-02-22T09:00:01.962Z,0.20
2018-02-22T09:02:29.492Z,0.30
2018-02-22T09:04:58.076Z,0.30
2018-02-22T09:07:26.397Z,0.30
2018-02-22T09:09:53.967Z,0.20
2018-02-22T09:12:21.510Z,0.30
2018-02-22T09:14:49.041Z,0.30
2018-02-22T09:17:16.598Z,0.40
2018-02-22T09:19:44.164Z,0.40
2018-02-22T09:22:11.675Z,0.40
2018-02-22T09:24:39.173Z,0.50
2018-02-22T09:27:07.084Z,0.50
2018-02-22T09:29:35.364Z,0.60
2018-02-22T09:32:02.879Z,0.60
2018-02-22T09:34:30.407Z,0.60
2018-02-22T09:36:57.925Z,0.60
2018-02-22T09:39:25.434Z,0.60
2018-02-22T09:41:52.981Z,0.70
2018-02-22T09:44:20.479Z,0.70
2018-02-22T09:46:47.997Z,0.70
2018-02-22T09:49:15.528Z,0.70
2018-02-22T09:51:43.043Z,0.70
2018-02-22T09:54:10.574Z,0.70
2018-02-22T09:56:38.121Z,0.70
2018-02-22T09:59:05.652Z,0.70
2018-02-22T10:01:33.191Z,0.70
2018-02-22T10:04:00.721Z,0.70
2018-02-22T10:06:29.268Z,0.70
2018-02-22T10:08:56.790Z,0.60
2018-02-22T10:11:24.334Z,0.60
2018-02-22T10:13:51.855Z,0.70
2018-02-22T10:16:20.122Z,0.70
2018-02-22T10:18:47.780Z,0.70
2018-02-22T10:21:15.305Z,0.70
2018-02-22T10:23:42.803Z,0.70
2018-02-22T10:26:10.320Z,0.70
2018-02-22T10:28:37.843Z,0.80
2018-02-22T10:31:06.111Z,0.70
2018-02-22T10:33:33.665Z,0.70
2018-02-22T10:36:01.185Z,0.80
2018-02-22T10:38:28.699Z,0.90
2018-02-22T10:40:57.020Z,0.80
2018-02-22T10:43:24.534Z,0.80
2018-02-22T10:45:52.795Z,0.80
2018-02-22T10:48:20.315Z,0.80
2018-02-22T10:50:47.814Z,0.90
2018-02-22T10:53:15.333Z,1.00
2018-02-22T10:55:42.851Z,0.90
2018-02-22T10:58:10.377Z,0.90
2018-02-22T11:00:43.467Z,1.00
2018-02-22T11:03:10.990Z,1.00
2018-02-22T11:05:38.488Z,1.10
2018-02-22T11:08:06.021Z,1.10
2018-02-22T11:10:33.550Z,1.10
2018-02-22T11:13:01.063Z,1.20
2018-02-22T11:15:28.948Z,1.20
2018-02-22T11:17:56.444Z,1.20
2018-02-22T11:20:23.990Z,1.20
2018-02-22T11:22:51.505Z,1.30
2018-02-22T11:25:19.080Z,1.30
2018-02-22T11:27:47.350Z,1.40
2018-02-22T11:30:15.648Z,1.30
2018-02-22T11:32:44.047Z,1.40
2018-02-22T11:35:11.551Z,1.40
2018-02-22T11:37:39.105Z,1.40
2018-02-22T11:40:07.401Z,1.40
2018-02-22T11:42:35.676Z,1.40
2018-02-22T11:45:03.972Z,1.50
2018-02-22T11:47:31.492Z,1.50
2018-02-22T11:49:59.002Z,1.50
2018-02-22T11:52:26.521Z,1.50
2018-02-22T11:54:54.071Z,1.50
2018-02-22T11:57:21.572Z,1.50
2018-02-22T11:59:49.088Z,1.50
2018-02-22T12:02:17.373Z,1.60
2018-02-22T12:04:45.681Z,1.60
2018-02-22T12:07:13.200Z,1.60
2018-02-22T12:09:40.740Z,1.70
2018-02-22T12:12:08.253Z,1.70
2018-02-22T12:14:35.780Z,1.70
2018-02-22T12:17:04.074Z,1.70
2018-02-22T12:19:31.588Z,1.70
2018-02-22T12:21:59.139Z,1.70
2018-02-22T12:24:26.668Z,1.70
2018-02-22T12:26:54.186Z,1.70
2018-02-22T12:29:21.703Z,1.70
2018-02-22T12:31:49.228Z,1.80
2018-02-22T12:34:16.737Z,1.90
2018-02-22T12:36:44.307Z,1.90
2018-02-22T12:39:11.822Z,1.90
2018-02-22T12:41:39.309Z,1.90
2018-02-22T12:44:07.669Z,1.90
2018-02-22T12:46:35.180Z,1.90
2018-02-22T12:49:03.463Z,1.80
2018-02-22T12:51:31.007Z,1.80
2018-02-22T12:53:59.282Z,1.90
2018-02-22T12:56:27.559Z,1.90
2018-02-22T12:58:55.873Z,1.90
2018-02-22T13:01:23.361Z,1.90
2018-02-22T13:03:50.869Z,1.80
2018-02-22T13:06:18.423Z,1.80
2018-02-22T13:08:45.953Z,1.80
2018-02-22T13:11:13.456Z,1.90
2018-02-22T13:13:40.996Z,1.90
2018-02-22T13:16:08.512Z,1.90
2018-02-22T13:18:36.039Z,2.00
2018-02-22T13:21:03.571Z,2.00
2018-02-22T13:23:31.117Z,2.00
2018-02-22T13:25:59.388Z,2.00
2018-02-22T13:28:26.944Z,1.90
2018-02-22T13:30:54.464Z,2.00
2018-02-22T13:33:33.873Z,2.10
2018-02-22T13:36:01.381Z,2.20
2018-02-22T13:38:40.781Z,2.20
2018-02-22T13:41:08.296Z,2.30
2018-02-22T13:43:36.652Z,2.40
2018-02-22T13:46:04.190Z,2.30
2018-02-22T13:48:43.464Z,2.40
2018-02-22T13:51:11.716Z,2.40
2018-02-22T13:53:39.228Z,2.40
2018-02-22T13:56:06.748Z,2.40
2018-02-22T13:58:34.524Z,2.40
2018-02-22T14:01:13.769Z,2.40
2018-02-22T14:03:41.315Z,2.30
2018-02-22T14:06:08.833Z,2.30
2018-02-22T14:08:45.245Z,2.40
2018-02-22T14:11:13.547Z,2.40
2018-02-22T14:13:41.069Z,2.40
2018-02-22T14:16:08.596Z,2.40
2018-02-22T14:18:36.087Z,2.30
2018-02-22T14:21:03.579Z,2.40
2018-02-22T14:23:31.100Z,2.30
2018-02-22T14:25:58.594Z,2.40
2018-02-22T14:28:26.100Z,2.40
2018-02-22T14:30:53.659Z,2.40
2018-02-22T14:33:21.172Z,2.40
2018-02-22T14:35:48.671Z,2.40
2018-02-22T14:38:16.205Z,2.40
2018-02-22T14:40:43.709Z,2.40
2018-02-22T14:43:11.260Z,2.40
2018-02-22T14:45:38.776Z,2.40
2018-02-22T14:48:06.292Z,2.40
2018-02-22T14:50:34.590Z,2.50
2018-02-22T14:53:02.547Z,2.50
2018-02-22T14:55:30.043Z,2.50
2018-02-22T14:57:57.558Z,2.50
2018-02-22T15:00:25.083Z,2.60
2018-02-22T15:02:52.600Z,2.70
2018-02-22T15:05:20.104Z,2.70
2018-02-22T15:07:47.637Z,2.70
2018-02-22T15:10:15.173Z,2.80
2018-02-22T15:12:42.693Z,2.80
2018-02-22T15:15:10.978Z,2.90
2018-02-22T15:17:38.473Z,3.00
2018-02-22T15:20:06.074Z,3.10
2018-02-22T15:22:34.364Z,3.10
2018-02-22T15:25:02.705Z,3.10
2018-02-22T15:27:30.569Z,3.10
2018-02-22T15:29:58.082Z,3.10
2018-02-22T15:32:25.628Z,3.00
2018-02-22T15:34:53.909Z,3.10
2018-02-22T15:37:21.683Z,3.00
2018-02-22T15:39:49.986Z,3.00
2018-02-22T15:42:17.508Z,3.00
2018-02-22T15:44:45.076Z,3.00
2018-02-22T15:47:12.576Z,2.90
2018-02-22T15:49:40.080Z,2.90
2018-02-22T15:52:07.616Z,2.90
2018-02-22T15:54:35.131Z,2.80
2018-02-22T15:57:02.651Z,2.80
2018-02-22T15:59:30.175Z,2.70
2018-02-22T16:01:57.837Z,2.70
2018-02-22T16:04:25.344Z,2.60
2018-02-22T16:06:52.916Z,2.70
2018-02-22T16:09:20.435Z,2.70
2018-02-22T16:11:49.434Z,2.60
2018-02-22T16:14:17.752Z,2.60
2018-02-22T16:16:46.049Z,2.60
2018-02-22T16:19:14.380Z,2.50
2018-02-22T16:21:41.940Z,2.40
2018-02-22T16:24:09.442Z,2.50
2018-02-22T16:26:37.239Z,2.40
2018-02-22T16:29:04.747Z,2.40
2018-02-22T16:31:32.324Z,2.40
2018-02-22T16:33:59.840Z,2.30
2018-02-22T16:36:27.387Z,2.20
2018-02-22T16:38:55.996Z,2.20
2018-02-22T16:41:23.500Z,2.20
2018-02-22T16:43:51.013Z,2.10
2018-02-22T16:46:19.333Z,2.10
2018-02-22T16:48:46.827Z,2.10
2018-02-22T16:51:15.374Z,2.00
2018-02-22T16:53:42.861Z,2.00
2018-02-22T16:56:10.453Z,2.00
2018-02-22T16:58:38.232Z,1.90
2018-02-22T17:01:05.735Z,1.90
2018-02-22T17:03:34.011Z,1.90
2018-02-22T17:06:01.543Z,1.80
2018-02-22T17:08:29.865Z,1.80
2018-02-22T17:10:57.937Z,1.80
2018-02-22T17:13:25.454Z,1.80
2018-02-22T17:15:53.147Z,1.80
2018-02-22T17:18:20.679Z,1.80
2018-02-22T17:20:48.313Z,1.80
2018-02-22T17:23:16.096Z,1.80
2018-02-22T17:25:49.322Z,1.70
2018-02-22T17:28:23.764Z,1.70
2018-02-22T17:30:57.031Z,1.70
2018-02-22T17:33:25.618Z,1.60
2018-02-22T17:36:04.749Z,1.60
2018-02-22T17:38:32.756Z,1.60
2018-02-22T17:41:01.172Z,1.60
2018-02-22T17:43:28.664Z,1.60
2018-02-22T17:45:56.188Z,1.60
2018-02-22T17:48:23.696Z,1.60
2018-02-22T17:50:51.217Z,1.50
2018-02-22T17:53:18.766Z,1.50
2018-02-22T17:55:46.269Z,1.50
2018-02-22T17:58:13.811Z,1.50
2018-02-22T18:00:41.385Z,1.50
2018-02-22T18:03:08.913Z,1.50
2018-02-22T18:05:36.425Z,1.50
2018-02-22T18:08:04.821Z,1.40
2018-02-22T18:10:32.343Z,1.40
2018-02-22T18:12:59.862Z,1.40
2018-02-22T18:15:28.757Z,1.40
2018-02-22T18:17:57.136Z,1.40
2018-02-22T18:20:25.413Z,1.30
2018-02-22T18:22:53.727Z,1.40
2018-02-22T18:25:21.258Z,1.30
2018-02-22T18:27:48.790Z,1.30
2018-02-22T18:30:17.142Z,1.30
2018-02-22T18:32:44.718Z,1.30
2018-02-22T18:35:12.223Z,1.30
2018-02-22T18:37:45.297Z,1.30
2018-02-22T18:40:19.178Z,1.20
2018-02-22T18:42:50.589Z,1.10
2018-02-22T18:45:18.146Z,1.10
2018-02-22T18:47:45.687Z,1.10
2018-02-22T18:50:13.214Z,1.20
2018-02-22T18:52:41.573Z,1.00
2018-02-22T18:55:09.097Z,1.00
2018-02-22T18:57:36.660Z,1.00
2018-02-22T19:00:04.304Z,0.90
2018-02-22T19:02:31.887Z,0.80
2018-02-22T19:04:59.440Z,0.80
2018-02-22T19:07:27.074Z,0.80
2018-02-22T19:09:54.631Z,0.70
2018-02-22T19:12:22.310Z,0.70
2018-02-22T19:14:49.842Z,0.70
2018-02-22T19:17:18.163Z,0.60
2018-02-22T19:19:45.726Z,0.60
2018-02-22T19:22:14.097Z,0.60
2018-02-22T19:24:41.621Z,0.50
2018-02-22T19:27:09.183Z,0.50
2018-02-22T19:29:36.768Z,0.50
2018-02-22T19:32:04.330Z,0.40
2018-02-22T19:34:32.694Z,0.40
2018-02-22T19:37:00.265Z,0.40
2018-02-22T19:39:27.792Z,0.40
2018-02-22T19:41:56.126Z,0.30
2018-02-22T19:44:23.684Z,0.30
2018-02-22T19:46:52.045Z,0.30
2018-02-22T19:49:19.645Z,0.30
2018-02-22T19:51:47.219Z,0.30
2018-02-22T19:54:14.836Z,0.20
2018-02-22T19:56:42.380Z,0.20
2018-02-22T19:59:09.910Z,0.20
2018-02-22T20:01:37.459Z,0.20
2018-02-22T20:04:05.039Z,0.10
2018-02-22T20:06:33.551Z,0.10
2018-02-22T20:09:01.332Z,0.10
2018-02-22T20:11:29.686Z,0.10
2018-02-22T20:13:57.230Z,0.10
2018-02-22T20:16:24.791Z,0.00
2018-02-22T20:18:52.629Z,0.00
2018-02-22T20:21:20.278Z,-0.10
2018-02-22T20:23:49.093Z,-0.10
2018-02-22T20:26:16.687Z,-0.10
2018-02-22T20:28:44.245Z,-0.10
2018-02-22T20:31:11.769Z,-0.10
2018-02-22T20:33:39.316Z,-0.20
2018-02-22T20:36:06.895Z,-0.20
2018-02-22T20:38:34.447Z,-0.20
2018-02-22T20:41:02.771Z,-0.10
2018-02-22T20:43:30.387Z,-0.20
2018-02-22T20:45:57.940Z,-0.20
2018-02-22T20:48:25.564Z,-0.30
2018-02-22T20:50:53.956Z,-0.30
2018-02-22T20:53:22.417Z,-0.30
2018-02-22T20:55:50.765Z,-0.30
2018-02-22T20:58:18.311Z,-0.40
2018-02-22T21:00:45.857Z,-0.30
2018-02-22T21:03:16.020Z,-0.30
2018-02-22T21:05:43.605Z,-0.30
2018-02-22T21:08:11.175Z,-0.40
2018-02-22T21:10:39.206Z,-0.40
2018-02-22T21:13:06.775Z,-0.40
2018-02-22T21:15:34.387Z,-0.50
2018-02-22T21:18:02.809Z,-0.40
2018-02-22T21:20:30.336Z,-0.40
2018-02-22T21:22:58.057Z,-0.40
2018-02-22T21:25:26.378Z,-0.50
2018-02-22T21:27:53.965Z,-0.50
2018-02-22T21:30:21.474Z,-0.50
2018-02-22T21:32:49.052Z,-0.50
2018-02-22T21:35:16.654Z,-0.50
2018-02-22T21:37:44.158Z,-0.50
2018-02-22T21:40:11.705Z,-0.50
2018-02-22T21:42:39.216Z,-0.60
2018-02-22T21:45:06.732Z,-0.60
2018-02-22T21:47:34.266Z,-0.60
2018-02-22T21:50:01.802Z,-0.60
2018-02-22T21:52:29.324Z,-0.60
2018-02-22T21:54:57.647Z,-0.60
2018-02-22T21:57:25.936Z,-0.60
2018-02-22T21:59:53.519Z,-0.70
2018-02-22T22:02:21.078Z,-0.60
2018-02-22T22:04:48.576Z,-0.70
2018-02-22T22:07:16.087Z,-0.70
2018-02-22T22:09:43.607Z,-0.70
2018-02-22T22:12:11.876Z,-0.70
2018-02-22T22:14:39.389Z,-0.70
2018-02-22T22:17:06.933Z,-0.70
2018-02-22T22:19:34.447Z,-0.70
2018-02-22T22:22:01.995Z,-0.70
2018-02-22T22:24:29.531Z,-0.70
2018-02-22T22:26:57.288Z,-0.70
2018-02-22T22:29:24.898Z,-0.70
2018-02-22T22:31:52.418Z,-0.70
2018-02-22T22:34:19.937Z,-0.70
2018-02-22T22:36:47.464Z,-0.70
2018-02-22T22:39:14.987Z,-0.70
2018-02-22T22:41:42.515Z,-0.80
2018-02-22T22:44:10.081Z,-0.80
2018-02-22T22:46:37.604Z,-0.80
2018-02-22T22:49:05.115Z,-0.80
2018-02-22T22:51:32.616Z,-0.80
2018-02-22T22:54:00.165Z,-0.90
2018-02-22T22:56:27.655Z,-0.90
2018-02-22T22:58:55.173Z,-0.90
2018-02-22T23:01:22.705Z,-0.90
2018-02-22T23:03:50.204Z,-0.90
2018-02-22T23:06:17.724Z,-1.00
2018-02-22T23:08:45.243Z,-0.90
2018-02-22T23:11:13.516Z,-1.00
2018-02-22T23:13:41.788Z,-1.00
2018-02-22T23:16:10.121Z,-1.00
2018-02-22T23:18:37.644Z,-1.00
2018-02-22T23:21:05.164Z,-1.10
2018-02-22T23:23:32.718Z,-1.00
2018-02-22T23:26:00.229Z,-1.10
2018-02-22T23:28:27.731Z,-1.10
2018-02-22T23:30:55.246Z,-1.10
2018-02-22T23:33:22.752Z,-1.10
2018-02-22T23:35:50.251Z,-1.20
2018-02-22T23:38:17.762Z,-1.10
2018-02-22T23:40:49.748Z,-1.10
2018-02-22T23:43:18.030Z,-1.10
2018-02-22T23:45:45.555Z,-1.20
2018-02-22T23:48:13.069Z,-1.20
2018-02-22T23:50:40.876Z,-1.20
2018-02-22T23:53:08.428Z,-1.30
2018-02-22T23:55:35.938Z,-1.30
2018-02-22T23:58:03.455Z,-1.30
